Time;durP1;ratioP1;P1;durP2;ratioP2;P2;SDS_P1;SDS_P2;PMS_P1;PMS_P2;Temp;Humidity;BMP_temperature;BMP_pressure;BME280_temperature;BME280_humidity;BME280_pressure;Samples;Min_cycle;Max_cycle;Signal;HPM_P1;HPM_P2
2022/11/10 00:02:13;;;;;;;;;;;;;;;;;;5070661;28;20015;-79
2022/11/10 00:04:39;;;;;;;;;;;;;;;;;;5069789;28;20365;-79
2022/11/10 00:07:05;;;;;;;;;;;;;;;;;;5069761;28;20008;-79
2022/11/10 00:09:32;;;;;;;;;;;;;;;;;;5070391;28;20031;-80
2022/11/10 00:12:00;;;;;;;;;;;;;;;;;;5069616;28;20552;-79
2022/11/10 00:17:10;;;;;;;;;;;;;;;;;;5069930;28;19935;-79
2022/11/10 00:19:37;;;;;;;;;;;;;;;;;;5070629;28;20049;-79
2022/11/10 00:22:03;;;;;;;;;;;;;;;;;;5069891;28;19967;-79
2022/11/10 00:24:30;;;;;;;;;;;;;;;;;;5069911;28;20002;-79
2022/11/10 00:26:56;;;;;;;;;;;;;;;;;;5071098;28;20019;-80
2022/11/10 00:29:24;;;;;;;;;;;;;;;;;;5071429;28;20019;-80
2022/11/10 00:31:50;;;;;;;;;;;;;;;;;;5071663;28;20459;-79
2022/11/10 00:34:17;;;;;;;;;;;;;;;;;;5070063;28;19944;-79
2022/11/10 00:36:44;;;;;;;;;;;;;;;;;;5069974;28;19963;-78
2022/11/10 00:39:11;;;;;;;;;;;;;;;;;;5070034;28;20440;-79
2022/11/10 00:41:37;;;;;;;;;;;;;;;;;;5071255;28;20015;-78
2022/11/10 00:44:04;;;;;;;;;;;;;;;;;;5070164;28;20011;-79
2022/11/10 00:46:32;;;;;;;;;;;;;;;;;;5070553;28;20011;-78
2022/11/10 00:48:58;;;;;;;;;;;;;;;;;;5070213;28;20003;-78
2022/11/10 00:51:25;;;;;;;;;;;;;;;;;;5069985;28;19930;-78
2022/11/10 00:53:52;;;;;;;;;;;;;;;;;;5070447;28;20011;-78
2022/11/10 00:56:18;;;;;;;;;;;;;;;;;;5069787;28;20361;-78
2022/11/10 00:58:45;;;;;;;;;;;;;;;;;;5069775;28;20015;-78
2022/11/10 01:01:12;;;;;;;;;;;;;;;;;;5076970;28;19912;-77
2022/11/10 01:03:40;;;;;;;;;;;;;;;;;;5089401;28;19932;-78
2022/11/10 01:06:07;;;;;;;;;;;;;;;;;;5091017;28;19928;-78
2022/11/10 01:08:33;;;;;;;;;;;;;;;;;;5093677;28;19908;-78
2022/11/10 01:11:03;;;;;;;;;;;;;;;;;;5092512;28;19912;-77
2022/11/10 01:13:30;;;;;;;;;;;;;;;;;;5086952;28;19931;-79
2022/11/10 01:15:56;;;;;;;;;;;;;;;;;;5070985;28;19964;-78
2022/11/10 01:18:23;;;;;;;;;;;;;;;;;;5071642;28;20028;-78
2022/11/10 01:20:51;;;;;;;;;;;;;;;;;;5070539;28;20035;-78
2022/11/10 01:23:17;;;;;;;;;;;;;;;;;;5070797;28;19925;-78
2022/11/10 01:25:44;;;;;;;;;;;;;;;;;;5069796;28;19931;-78
2022/11/10 01:28:10;;;;;;;;;;;;;;;;;;5069644;28;19983;-78
2022/11/10 01:30:37;;;;;;;;;;;;;;;;;;5069908;28;20291;-78
2022/11/10 01:33:03;;;;;;;;;;;;;;;;;;5070928;28;19925;-78
2022/11/10 01:35:30;;;;;;;;;;;;;;;;;;5073278;28;19992;-78
2022/11/10 01:37:57;;;;;;;;;;;;;;;;;;5073248;28;20142;-78
2022/11/10 01:40:24;;;;;;;;;;;;;;;;;;5072083;28;19924;-78
2022/11/10 01:42:52;;;;;;;;;;;;;;;;;;5072272;28;20363;-78
2022/11/10 01:45:48;;;;;;;;;;;;;;;;;;5071527;28;20010;-78
2022/11/10 01:48:16;;;;;;;;;;;;;;;;;;5072776;28;19924;-78
2022/11/10 01:50:43;;;;;;;;;;;;;;;;;;5071778;28;20026;-78
2022/11/10 01:53:14;;;;;;;;;;;;;;;;;;5071957;28;20075;-78
2022/11/10 01:55:42;;;;;;;;;;;;;;;;;;5071242;28;20019;-78
2022/11/10 01:58:09;;;;;;;;;;;;;;;;;;5071718;28;20022;-78
2022/11/10 02:00:36;;;;;;;;;;;;;;;;;;5071468;28;20011;-78
2022/11/10 02:03:04;;;;;;;;;;;;;;;;;;5072363;28;20585;-78
2022/11/10 02:05:30;;;;;;;;;;;;;;;;;;5071057;28;20443;-78
2022/11/10 02:07:57;;;;;;;;;;;;;;;;;;5071920;28;19925;-77
2022/11/10 02:10:24;;;;;;;;;;;;;;;;;;5072271;28;19932;-78
2022/11/10 02:12:51;;;;;;;;;;;;;;;;;;5071292;28;20441;-78
2022/11/10 02:15:18;;;;;;;;;;;;;;;;;;5071327;28;19925;-78
2022/11/10 02:17:46;;;;;;;;;;;;;;;;;;5071968;28;20638;-78
2022/11/10 02:20:13;;;;;;;;;;;;;;;;;;5071637;28;20434;-78
2022/11/10 02:22:41;;;;;;;;;;;;;;;;;;5071492;28;20024;-79
2022/11/10 02:25:08;;;;;;;;;;;;;;;;;;5071517;28;20441;-79
2022/11/10 02:27:34;;;;;;;;;;;;;;;;;;5071284;28;19924;-79
2022/11/10 02:30:01;;;;;;;;;;;;;;;;;;5071410;28;20020;-79
2022/11/10 02:32:28;;;;;;;;;;;;;;;;;;5072540;28;20343;-80
2022/11/10 02:34:54;;;;;;;;;;;;;;;;;;5071910;28;20012;-80
2022/11/10 02:37:21;;;;;;;;;;;;;;;;;;5071560;28;19925;-80
2022/11/10 02:39:48;;;;;;;;;;;;;;;;;;5071808;28;19928;-79
2022/11/10 02:42:15;;;;;;;;;;;;;;;;;;5072002;28;20429;-80
2022/11/10 02:44:41;;;;;;;;;;;;;;;;;;5072234;28;20019;-79
2022/11/10 02:47:08;;;;;;;;;;;;;;;;;;5072064;28;20061;-79
2022/11/10 02:49:35;;;;;;;;;;;;;;;;;;5071796;28;20399;-78
2022/11/10 02:52:01;;;;;;;;;;;;;;;;;;5071578;28;20065;-79
2022/11/10 02:54:27;;;;;;;;;;;;;;;;;;5072104;28;19931;-79
2022/11/10 02:56:55;;;;;;;;;;;;;;;;;;5071633;28;20022;-78
2022/11/10 02:59:22;;;;;;;;;;;;;;;;;;5071895;28;19930;-79
2022/11/10 03:01:48;;;;;;;;;;;;;;;;;;5071876;28;19931;-78
2022/11/10 03:04:15;;;;;;;;;;;;;;;;;;5071435;28;19999;-79
2022/11/10 03:06:41;;;;;;;;;;;;;;;;;;5071367;28;20374;-78
2022/11/10 03:09:07;;;;;;;;;;;;;;;;;;5070822;28;19924;-79
2022/11/10 03:11:34;;;;;;;;;;;;;;;;;;5073987;28;20016;-79
2022/11/10 03:14:02;;;;;;;;;;;;;;;;;;5074473;28;19924;-79
2022/11/10 03:16:29;;;;;;;;;;;;;;;;;;5072890;28;19924;-78
2022/11/10 03:18:55;;;;;;;;;;;;;;;;;;5072089;28;19975;-78
2022/11/10 03:21:21;;;;;;;;;;;;;;;;;;5075456;28;20023;-79
2022/11/10 03:23:48;;;;;;;;;;;;;;;;;;5071990;28;20049;-78
2022/11/10 03:26:14;;;;;;;;;;;;;;;;;;5077483;28;20318;-78
2022/11/10 03:28:41;;;;;;;;;;;;;;;;;;5076673;28;20019;-78
2022/11/10 03:31:08;;;;;;;;;;;;;;;;;;5077095;28;19995;-78
2022/11/10 03:33:35;;;;;;;;;;;;;;;;;;5073181;28;19964;-79
2022/11/10 03:36:01;;;;;;;;;;;;;;;;;;5085056;28;20307;-79
2022/11/10 03:38:28;;;;;;;;;;;;;;;;;;5074134;28;20442;-79
2022/11/10 03:40:54;;;;;;;;;;;;;;;;;;5076720;28;20386;-78
2022/11/10 03:43:21;;;;;;;;;;;;;;;;;;5077436;28;19924;-78
2022/11/10 03:45:47;;;;;;;;;;;;;;;;;;5076138;28;20046;-78
2022/11/10 03:48:15;;;;;;;;;;;;;;;;;;5077613;28;20437;-78
2022/11/10 03:50:42;;;;;;;;;;;;;;;;;;5083445;28;19956;-78
2022/11/10 03:53:08;;;;;;;;;;;;;;;;;;5085238;28;19978;-78
2022/11/10 03:55:34;;;;;;;;;;;;;;;;;;5085713;28;19975;-78
2022/11/10 03:58:02;;;;;;;;;;;;;;;;;;5079621;28;20360;-78
2022/11/10 04:00:29;;;;;;;;;;;;;;;;;;5079734;28;19932;-78
2022/11/10 04:02:55;;;;;;;;;;;;;;;;;;5077926;28;19935;-78
2022/11/10 04:10:55;;;;;;;;;;;;;;;;;;5092849;28;20052;-78
2022/11/10 04:16:06;;;;;;;;;;;;;;;;;;5085759;28;19946;-78
2022/11/10 04:18:32;;;;;;;;;;;;;;;;;;5073440;28;19964;-78
2022/11/10 04:21:01;;;;;;;;;;;;;;;;;;5074532;28;19960;-78
2022/11/10 04:23:27;;;;;;;;;;;;;;;;;;5075122;28;19928;-79
2022/11/10 04:28:45;;;;;;;;;;;;;;;;;;5074685;28;19931;-79
2022/11/10 04:31:12;;;;;;;;;;;;;;;;;;5074408;28;20299;-79
2022/11/10 04:33:40;;;;;;;;;;;;;;;;;;5073724;28;20023;-79
2022/11/10 04:36:08;;;;;;;;;;;;;;;;;;5073744;28;20292;-79
2022/11/10 04:38:35;;;;;;;;;;;;;;;;;;5073837;28;20007;-78
2022/11/10 04:41:01;;;;;;;;;;;;;;;;;;5074729;28;19983;-79
2022/11/10 04:43:28;;;;;;;;;;;;;;;;;;5074021;28;20031;-79
2022/11/10 04:45:54;;;;;;;;;;;;;;;;;;5073976;28;20046;-79
2022/11/10 04:48:21;;;;;;;;;;;;;;;;;;5073379;28;19972;-79
2022/11/10 04:50:48;;;;;;;;;;;;;;;;;;5074024;28;19967;-80
2022/11/10 04:53:15;;;;;;;;;;;;;;;;;;5073825;28;20039;-80
2022/11/10 04:55:43;;;;;;;;;;;;;;;;;;5073548;28;20336;-80
2022/11/10 04:58:09;;;;;;;;;;;;;;;;;;5073243;28;20011;-80
2022/11/10 05:00:36;;;;;;;;;;;;;;;;;;5073712;28;20012;-80
2022/11/10 05:03:04;;;;;;;;;;;;;;;;;;5073150;28;19924;-80
2022/11/10 05:05:30;;;;;;;;;;;;;;;;;;5072735;28;20023;-80
2022/11/10 05:07:57;;;;;;;;;;;;;;;;;;5073998;28;19968;-80
2022/11/10 05:10:25;;;;;;;;;;;;;;;;;;5078018;28;20015;-80
2022/11/10 05:12:52;;;;;;;;;;;;;;;;;;5078401;28;19931;-80
2022/11/10 05:15:19;;;;;;;;;;;;;;;;;;5078234;28;19971;-80
2022/11/10 05:17:47;;;;;;;;;;;;;;;;;;5080704;28;20023;-80
2022/11/10 05:20:14;;;;;;;;;;;;;;;;;;5077407;28;19925;-79
2022/11/10 05:22:43;;;;;;;;;;;;;;;;;;5077629;28;19924;-80
2022/11/10 05:25:10;;;;;;;;;;;;;;;;;;5060506;28;20012;-80
2022/11/10 05:27:37;;;;;;;;;;;;;;;;;;5075853;28;19983;-80
2022/11/10 05:30:04;;;;;;;;;;;;;;;;;;5076248;28;20012;-80
2022/11/10 05:32:31;;;;;;;;;;;;;;;;;;5076229;28;19930;-79
2022/11/10 05:34:57;;;;;;;;;;;;;;;;;;5076018;28;20171;-79
2022/11/10 05:37:24;;;;;;;;;;;;;;;;;;5076507;28;20015;-79
2022/11/10 05:39:50;;;;;;;;;;;;;;;;;;5075878;28;19924;-79
2022/11/10 05:42:16;;;;;;;;;;;;;;;;;;5075817;28;20354;-79
2022/11/10 05:44:44;;;;;;;;;;;;;;;;;;5075142;28;19931;-79
2022/11/10 05:47:11;;;;;;;;;;;;;;;;;;5075419;28;20015;-79
2022/11/10 05:49:37;;;;;;;;;;;;;;;;;;5075229;28;19925;-79
2022/11/10 05:52:04;;;;;;;;;;;;;;;;;;5075861;28;20007;-79
2022/11/10 05:54:30;;;;;;;;;;;;;;;;;;5076194;28;20012;-79
2022/11/10 05:56:56;;;;;;;;;;;;;;;;;;5074804;28;20371;-77
2022/11/10 05:59:23;;;;;;;;;;;;;;;;;;5075080;28;20003;-79
2022/11/10 06:01:51;;;;;;;;;;;;;;;;;;5074643;28;19932;-79
2022/11/10 06:04:17;;;;;;;;;;;;;;;;;;5075452;28;20007;-79
2022/11/10 06:06:44;;;;;;;;;;;;;;;;;;5075534;28;20015;-80
2022/11/10 06:09:10;;;;;;;;;;;;;;;;;;5077139;28;20023;-80
2022/11/10 06:11:36;;;;;;;;;;;;;;;;;;5076504;28;19924;-80
2022/11/10 06:14:03;;;;;;;;;;;;;;;;;;5076248;28;19928;-80
2022/11/10 06:16:30;;;;;;;;;;;;;;;;;;5075180;28;20037;-80
2022/11/10 06:18:58;;;;;;;;;;;;;;;;;;5085679;28;19929;-79
2022/11/10 06:21:24;;;;;;;;;;;;;;;;;;5100039;28;19924;-78
2022/11/10 06:23:51;;;;;;;;;;;;;;;;;;5099680;28;19927;-78
2022/11/10 06:26:17;;;;;;;;;;;;;;;;;;5098056;28;19936;-77
2022/11/10 06:28:44;;;;;;;;;;;;;;;;;;5089541;28;19960;-79
2022/11/10 06:31:16;;;;;;;;;;;;;;;;;;5084333;28;19963;-78
2022/11/10 06:33:42;;;;;;;;;;;;;;;;;;5085230;28;19971;-78
2022/11/10 06:36:10;;;;;;;;;;;;;;;;;;5082398;28;19990;-79
2022/11/10 06:38:37;;;;;;;;;;;;;;;;;;5081755;28;19964;-78
2022/11/10 06:41:03;;;;;;;;;;;;;;;;;;5081183;28;19963;-78
2022/11/10 06:43:30;;;;;;;;;;;;;;;;;;5080697;28;20424;-78
2022/11/10 06:45:56;;;;;;;;;;;;;;;;;;5080064;28;19971;-78
2022/11/10 06:48:23;;;;;;;;;;;;;;;;;;5079161;28;20001;-78
2022/11/10 06:50:49;;;;;;;;;;;;;;;;;;5080606;28;19976;-78
2022/11/10 06:53:17;;;;;;;;;;;;;;;;;;5080145;28;19987;-78
2022/11/10 06:55:44;;;;;;;;;;;;;;;;;;5079238;28;19967;-78
2022/11/10 06:58:10;;;;;;;;;;;;;;;;;;5079527;28;19964;-78
2022/11/10 07:00:37;;;;;;;;;;;;;;;;;;5079253;28;20020;-78
2022/11/10 07:03:04;;;;;;;;;;;;;;;;;;5081542;28;19959;-79
2022/11/10 07:05:31;;;;;;;;;;;;;;;;;;5078399;28;19928;-78
2022/11/10 07:08:01;;;;;;;;;;;;;;;;;;5079427;28;19975;-78
2022/11/10 07:10:29;;;;;;;;;;;;;;;;;;5077119;28;19991;-79
2022/11/10 07:12:56;;;;;;;;;;;;;;;;;;5078971;28;20447;-79
2022/11/10 07:15:22;;;;;;;;;;;;;;;;;;5083554;28;19924;-80
2022/11/10 07:17:49;;;;;;;;;;;;;;;;;;5075299;28;19967;-79
2022/11/10 07:20:15;;;;;;;;;;;;;;;;;;5074820;28;20020;-78
2022/11/10 07:22:42;;;;;;;;;;;;;;;;;;5074700;28;20019;-78
2022/11/10 07:25:09;;;;;;;;;;;;;;;;;;5074889;28;19993;-79
2022/11/10 07:27:36;;;;;;;;;;;;;;;;;;5073760;28;19928;-79
2022/11/10 07:30:03;;;;;;;;;;;;;;;;;;5074032;28;20011;-79
2022/11/10 07:32:29;;;;;;;;;;;;;;;;;;5074069;28;20011;-80
2022/11/10 07:35:09;;;;;;;;;;;;;;;;;;5075083;28;19972;-80
2022/11/10 07:37:35;;;;;;;;;;;;;;;;;;5072076;28;19998;-80
2022/11/10 07:40:02;;;;;;;;;;;;;;;;;;5074922;28;20426;-80
2022/11/10 07:42:28;;;;;;;;;;;;;;;;;;5074424;28;19924;-80
2022/11/10 07:44:56;;;;;;;;;;;;;;;;;;5075437;28;20027;-80
2022/11/10 07:47:24;;;;;;;;;;;;;;;;;;5079189;28;19975;-81
2022/11/10 07:49:50;;;;;;;;;;;;;;;;;;5076930;28;19929;-80
2022/11/10 07:52:17;;;;;;;;;;;;;;;;;;5079876;28;19992;-78
2022/11/10 07:54:44;;;;;;;;;;;;;;;;;;5081635;28;19924;-80
2022/11/10 07:57:10;;;;;;;;;;;;;;;;;;5077454;28;20069;-80
2022/11/10 07:59:37;;;;;;;;;;;;;;;;;;5080611;28;19980;-80
2022/11/10 08:02:05;;;;;;;;;;;;;;;;;;5089553;28;19924;-79
2022/11/10 08:04:32;;;;;;;;;;;;;;;;;;5088622;28;19936;-81
2022/11/10 08:06:58;;;;;;;;;;;;;;;;;;5077957;28;19967;-80
2022/11/10 08:09:24;;;;;;;;;;;;;;;;;;5078078;28;20311;-80
2022/11/10 08:11:51;;;;;;;;;;;;;;;;;;5076908;28;19968;-80
2022/11/10 08:14:17;;;;;;;;;;;;;;;;;;5070079;28;20016;-79
2022/11/10 08:16:44;;;;;;;;;;;;;;;;;;5070206;28;19956;-79
2022/11/10 08:19:12;;;;;;;;;;;;;;;;;;5083803;28;19975;-79
2022/11/10 08:21:38;;;;;;;;;;;;;;;;;;5083244;28;20010;-79
2022/11/10 08:24:05;;;;;;;;;;;;;;;;;;5083448;28;19928;-79
2022/11/10 08:26:31;;;;;;;;;;;;;;;;;;5082558;28;19925;-79
2022/11/10 08:28:58;;;;;;;;;;;;;;;;;;5083554;28;19955;-79
2022/11/10 08:31:24;;;;;;;;;;;;;;;;;;5083612;28;19975;-79
2022/11/10 08:33:51;;;;;;;;;;;;;;;;;;5082317;28;20027;-79
2022/11/10 08:36:19;;;;;;;;;;;;;;;;;;5083668;28;19932;-79
2022/11/10 08:38:51;;;;;;;;;;;;;;;;;;5081782;28;19975;-79
2022/11/10 08:41:18;;;;;;;;;;;;;;;;;;5082496;28;19947;-79
2022/11/10 08:43:44;;;;;;;;;;;;;;;;;;5081923;28;20348;-79
2022/11/10 08:46:11;;;;;;;;;;;;;;;;;;5083508;28;19974;-79
2022/11/10 08:48:37;;;;;;;;;;;;;;;;;;5082581;28;19970;-80
2022/11/10 08:51:03;;;;;;;;;;;;;;;;;;5084581;28;20035;-80
2022/11/10 08:53:31;;;;;;;;;;;;;;;;;;5083353;28;20043;-79
2022/11/10 08:55:58;;;;;;;;;;;;;;;;;;5083369;28;19963;-79
2022/11/10 08:58:25;;;;;;;;;;;;;;;;;;5080447;28;19978;-81
2022/11/10 09:00:52;;;;;;;;;;;;;;;;;;5075130;28;19925;-81
2022/11/10 09:03:20;;;;;;;;;;;;;;;;;;5074744;28;20450;-79
2022/11/10 09:05:47;;;;;;;;;;;;;;;;;;5075275;28;19924;-78
2022/11/10 09:08:14;;;;;;;;;;;;;;;;;;5073984;28;20019;-83
2022/11/10 09:10:43;;;;;;;;;;;;;;;;;;5063904;28;20023;-79
2022/11/10 09:13:10;;;;;;;;;;;;;;;;;;5079103;28;19925;-81
2022/11/10 09:15:36;;;;;;;;;;;;;;;;;;5080279;28;19932;-79
2022/11/10 09:18:03;;;;;;;;;;;;;;;;;;5079389;28;20007;-79
2022/11/10 09:20:31;;;;;;;;;;;;;;;;;;5080098;28;19955;-79
2022/11/10 09:23:03;;;;;;;;;;;;;;;;;;5081396;28;20003;-80
2022/11/10 09:25:30;;;;;;;;;;;;;;;;;;5081075;28;20508;-79
2022/11/10 09:27:58;;;;;;;;;;;;;;;;;;5073788;28;19924;-82
2022/11/10 09:30:55;;;;;;;;;;;;;;;;;;5069897;28;19963;-83
2022/11/10 09:33:21;;;;;;;;;;;;;;;;;;5071805;28;20459;-79
2022/11/10 09:35:48;;;;;;;;;;;;;;;;;;5075223;28;19925;-80
2022/11/10 09:38:16;;;;;;;;;;;;;;;;;;5079512;28;19931;-80
2022/11/10 09:40:49;;;;;;;;;;;;;;;;;;5076930;28;19924;-79
2022/11/10 09:43:21;;;;;;;;;;;;;;;;;;5076491;28;19924;-80
2022/11/10 09:45:49;;;;;;;;;;;;;;;;;;5075806;28;19931;-80
2022/11/10 09:48:17;;;;;;;;;;;;;;;;;;5076321;28;19987;-80
2022/11/10 09:50:45;;;;;;;;;;;;;;;;;;5072680;28;20541;-78
2022/11/10 09:53:14;;;;;;;;;;;;;;;;;;5072494;28;19924;-78
2022/11/10 09:55:43;;;;;;;;;;;;;;;;;;5073811;28;20013;-78
2022/11/10 09:58:11;;;;;;;;;;;;;;;;;;5075825;28;19971;-78
2022/11/10 10:00:41;;;;;;;;;;;;;;;;;;5077126;28;20375;-78
2022/11/10 10:03:10;;;;;;;;;;;;;;;;;;5076408;28;19928;-79
2022/11/10 10:05:50;;;;;;;;;;;;;;;;;;5079165;28;19931;-78
2022/11/10 10:08:22;;;;;;;;;;;;;;;;;;5076363;28;19924;-79
2022/11/10 10:10:51;;;;;;;;;;;;;;;;;;5076321;28;19967;-79
2022/11/10 10:13:25;;;;;;;;;;;;;;;;;;5074652;28;19924;-79
2022/11/10 10:15:58;;;;;;;;;;;;;;;;;;5076664;28;19925;-79
2022/11/10 10:18:29;;;;;;;;;;;;;;;;;;5076076;28;19931;-79
2022/11/10 10:21:05;;;;;;;;;;;;;;;;;;5077138;28;20396;-79
2022/11/10 10:23:34;;;;;;;;;;;;;;;;;;5077338;28;19925;-79
2022/11/10 10:26:01;;;;;;;;;;;;;;;;;;5076203;28;19966;-79
2022/11/10 10:28:32;;;;;;;;;;;;;;;;;;5077221;28;19931;-79
2022/11/10 10:31:12;;;;;;;;;;;;;;;;;;5072326;28;19924;-79
2022/11/10 10:33:43;;;;;;;;;;;;;;;;;;5076402;28;20020;-79
2022/11/10 10:36:14;;;;;;;;;;;;;;;;;;5078580;28;19932;-79
2022/11/10 10:38:44;;;;;;;;;;;;;;;;;;5078581;28;19963;-78
2022/11/10 10:41:13;;;;;;;;;;;;;;;;;;5076717;28;19967;-79
2022/11/10 10:43:46;;;;;;;;;;;;;;;;;;5072921;28;19960;-80
2022/11/10 10:46:15;;;;;;;;;;;;;;;;;;5086716;28;20326;-80
2022/11/10 10:48:42;;;;;;;;;;;;;;;;;;5078323;28;20019;-80
2022/11/10 10:51:08;;;;;;;;;;;;;;;;;;5078492;28;19960;-81
2022/11/10 10:53:44;;;;;;;;;;;;;;;;;;5072561;28;19964;-79
2022/11/10 10:56:16;;;;;;;;;;;;;;;;;;5077507;28;19971;-79
2022/11/10 10:58:50;;;;;;;;;;;;;;;;;;5078634;28;19967;-79
2022/11/10 11:01:25;;;;;;;;;;;;;;;;;;5076667;28;20019;-81
2022/11/10 11:03:52;;;;;;;;;;;;;;;;;;5078592;22;19924;-79
2022/11/10 11:06:20;;;;;;;;;;;;;;;;;;5049565;28;19925;-79
2022/11/10 11:08:53;;;;;;;;;;;;;;;;;;5045753;28;19925;-78
2022/11/10 11:11:23;;;;;;;;;;;;;;;;;;5036077;28;20015;-78
2022/11/10 11:13:50;;;;;;;;;;;;;;;;;;5037799;28;19948;-77
2022/11/10 11:16:17;;;;;;;;;;;;;;;;;;5039437;28;19929;-78
2022/11/10 11:18:44;;;;;;;;;;;;;;;;;;5036047;28;20451;-78
2022/11/10 11:21:17;;;;;;;;;;;;;;;;;;5037067;28;19971;-78
2022/11/10 11:23:48;;;;;;;;;;;;;;;;;;5028805;28;19936;-78
2022/11/10 11:26:17;;;;;;;;;;;;;;;;;;5037402;28;19929;-79
2022/11/10 11:28:47;;;;;;;;;;;;;;;;;;5036442;28;20296;-78
2022/11/10 11:31:17;;;;;;;;;;;;;;;;;;5035963;28;20019;-78
2022/11/10 11:33:46;;;;;;;;;;;;;;;;;;5034571;28;19929;-78
2022/11/10 11:36:16;;;;;;;;;;;;;;;;;;5035613;28;20019;-78
2022/11/10 11:38:47;;;;;;;;;;;;;;;;;;5039621;28;20016;-78
2022/11/10 11:41:18;;;;;;;;;;;;;;;;;;5035055;28;20024;-77
2022/11/10 11:43:54;;;;;;;;;;;;;;;;;;5033637;28;20275;-78
2022/11/10 11:46:26;;;;;;;;;;;;;;;;;;5031361;28;19925;-78
2022/11/10 11:48:59;;;;;;;;;;;;;;;;;;5016257;28;19965;-78
2022/11/10 11:51:28;;;;;;;;;;;;;;;;;;5030748;28;19964;-78
2022/11/10 11:54:20;;;;;;;;;;;;;;;;;;5031852;28;19967;-78
2022/11/10 11:56:48;;;;;;;;;;;;;;;;;;5029660;28;19932;-77
2022/11/10 11:59:30;;;;;;;;;;;;;;;;;;5032990;28;19964;-77
2022/11/10 12:02:04;;;;;;;;;;;;;;;;;;5030172;28;19932;-77
2022/11/10 12:04:40;;;;;;;;;;;;;;;;;;5031796;28;19967;-78
2022/11/10 12:07:24;;;;;;;;;;;;;;;;;;5034243;28;19967;-78
2022/11/10 12:09:54;;;;;;;;;;;;;;;;;;5035351;28;19986;-77
2022/11/10 12:12:39;;;;;;;;;;;;;;;;;;5035501;28;19967;-78
2022/11/10 12:15:11;;;;;;;;;;;;;;;;;;5037078;28;19953;-78
2022/11/10 12:17:43;;;;;;;;;;;;;;;;;;5015158;28;19989;-77
2022/11/10 12:20:17;;;;;;;;;;;;;;;;;;5036518;28;19929;-78
2022/11/10 12:22:47;;;;;;;;;;;;;;;;;;5046621;28;19991;-76
2022/11/10 12:25:18;;;;;;;;;;;;;;;;;;5047504;28;20184;-78
2022/11/10 12:27:47;;;;;;;;;;;;;;;;;;5047063;28;19979;-78
2022/11/10 12:30:14;;;;;;;;;;;;;;;;;;5045844;28;19940;-78
2022/11/10 12:32:45;;;;;;;;;;;;;;;;;;5045351;28;19925;-78
2022/11/10 12:35:14;;;;;;;;;;;;;;;;;;5036393;28;20024;-78
2022/11/10 12:37:44;;;;;;;;;;;;;;;;;;5033505;28;20144;-78
2022/11/10 12:40:14;;;;;;;;;;;;;;;;;;5033189;28;19925;-78
2022/11/10 12:42:41;;;;;;;;;;;;;;;;;;5032777;28;19928;-77
2022/11/10 12:45:15;;;;;;;;;;;;;;;;;;5033693;28;19949;-78
2022/11/10 12:47:43;;;;;;;;;;;;;;;;;;5034648;28;19953;-78
2022/11/10 12:50:19;;;;;;;;;;;;;;;;;;5038152;28;19925;-78
2022/11/10 12:52:51;;;;;;;;;;;;;;;;;;5030033;28;19925;-79
2022/11/10 12:55:18;;;;;;;;;;;;;;;;;;5031724;28;20016;-78
2022/11/10 12:57:45;;;;;;;;;;;;;;;;;;5045176;28;20506;-85
2022/11/10 13:00:23;;;;;;;;;;;;;;;;;;5034915;28;20021;-86
2022/11/10 13:02:50;;;;;;;;;;;;;;;;;;5035107;28;20134;-83
2022/11/10 13:05:28;;;;;;;;;;;;;;;;;;5036003;28;19925;-79
2022/11/10 13:08:07;;;;;;;;;;;;;;;;;;5039546;28;20038;-78
2022/11/10 13:10:34;;;;;;;;;;;;;;;;;;5042271;28;19965;-80
2022/11/10 13:13:06;;;;;;;;;;;;;;;;;;5040148;28;19932;-79
2022/11/10 13:15:46;;;;;;;;;;;;;;;;;;5038171;28;20000;-81
2022/11/10 13:18:21;;;;;;;;;;;;;;;;;;5036151;28;19925;-78
2022/11/10 13:20:49;;;;;;;;;;;;;;;;;;5037034;28;19968;-78
2022/11/10 13:23:24;;;;;;;;;;;;;;;;;;5038681;28;20021;-78
2022/11/10 13:25:55;;;;;;;;;;;;;;;;;;5039077;28;19925;-77
2022/11/10 13:28:40;;;;;;;;;;;;;;;;;;5036973;28;19989;-78
2022/11/10 13:31:21;;;;;;;;;;;;;;;;;;5040838;28;19925;-77
2022/11/10 13:34:02;;;;;;;;;;;;;;;;;;5040599;28;19964;-77
2022/11/10 13:36:36;;;;;;;;;;;;;;;;;;5041611;28;19979;-77
2022/11/10 13:39:22;;;;;;;;;;;;;;;;;;5045244;28;19929;-78
2022/11/10 13:41:49;;;;;;;;;;;;;;;;;;5049271;28;19980;-79
2022/11/10 13:44:23;;;;;;;;;;;;;;;;;;5046352;28;19943;-79
2022/11/10 13:46:57;;;;;;;;;;;;;;;;;;5044313;28;20301;-78
2022/11/10 13:49:29;;;;;;;;;;;;;;;;;;5026907;28;19986;-79
2022/11/10 13:52:04;;;;;;;;;;;;;;;;;;5042385;28;20428;-78
2022/11/10 13:54:46;;;;;;;;;;;;;;;;;;5047709;28;19925;-77
2022/11/10 14:00:27;;;;;;;;;;;;;;;;;;5042410;28;19975;-78
2022/11/10 14:03:16;;;;;;;;;;;;;;;;;;5041406;28;20016;-77
2022/11/10 14:05:57;;;;;;;;;;;;;;;;;;5044498;28;19921;-78
2022/11/10 14:08:25;;;;;;;;;;;;;;;;;;5050498;28;19925;-78
2022/11/10 14:10:54;;;;;;;;;;;;;;;;;;5048364;28;19925;-79
2022/11/10 14:13:26;;;;;;;;;;;;;;;;;;5048786;28;19932;-79
2022/11/10 14:15:53;;;;;;;;;;;;;;;;;;5049786;28;19933;-78
2022/11/10 14:18:21;;;;;;;;;;;;;;;;;;5050262;28;19925;-78
2022/11/10 14:20:52;;;;;;;;;;;;;;;;;;5049464;28;19980;-77
2022/11/10 14:23:21;;;;;;;;;;;;;;;;;;5046791;28;19932;-76
2022/11/10 14:25:52;;;;;;;;;;;;;;;;;;5052174;28;20563;-79
2022/11/10 14:28:25;;;;;;;;;;;;;;;;;;5049591;28;19925;-78
2022/11/10 14:30:53;;;;;;;;;;;;;;;;;;5054772;28;19973;-77
2022/11/10 14:33:19;;;;;;;;;;;;;;;;;;5060401;28;19925;-78
2022/11/10 14:35:48;;;;;;;;;;;;;;;;;;5060053;28;19929;-78
2022/11/10 14:38:17;;;;;;;;;;;;;;;;;;5058635;28;19924;-77
2022/11/10 14:40:43;;;;;;;;;;;;;;;;;;5048964;28;19936;-78
2022/11/10 14:43:25;;;;;;;;;;;;;;;;;;5036231;28;19965;-78
2022/11/10 14:45:53;;;;;;;;;;;;;;;;;;5039555;28;19989;-78
2022/11/10 14:48:21;;;;;;;;;;;;;;;;;;5048950;28;20012;-78
2022/11/10 14:50:48;;;;;;;;;;;;;;;;;;5049591;28;19956;-77
2022/11/10 14:53:17;;;;;;;;;;;;;;;;;;5048199;28;20391;-78
2022/11/10 14:55:44;;;;;;;;;;;;;;;;;;5051783;28;19925;-78
2022/11/10 14:58:13;;;;;;;;;;;;;;;;;;5043503;28;19949;-78
2022/11/10 15:00:40;;;;;;;;;;;;;;;;;;5041839;28;20047;-78
2022/11/10 15:03:09;;;;;;;;;;;;;;;;;;5046119;28;20011;-78
2022/11/10 15:05:35;;;;;;;;;;;;;;;;;;5048684;28;19925;-79
2022/11/10 15:08:03;;;;;;;;;;;;;;;;;;5047667;28;19925;-78
2022/11/10 15:10:42;;;;;;;;;;;;;;;;;;5048628;28;19932;-78
2022/11/10 15:13:18;;;;;;;;;;;;;;;;;;5047702;28;19926;-77
2022/11/10 15:15:45;;;;;;;;;;;;;;;;;;5051474;28;19925;-78
2022/11/10 15:18:26;;;;;;;;;;;;;;;;;;5046764;28;20586;-77
2022/11/10 15:20:58;;;;;;;;;;;;;;;;;;5043268;28;20063;-78
2022/11/10 15:23:26;;;;;;;;;;;;;;;;;;5039569;28;20031;-78
2022/11/10 15:25:53;;;;;;;;;;;;;;;;;;5045800;28;19947;-78
2022/11/10 15:28:30;;;;;;;;;;;;;;;;;;5047387;28;19925;-77
2022/11/10 15:30:57;;;;;;;;;;;;;;;;;;5046941;28;19925;-78
2022/11/10 15:33:26;;;;;;;;;;;;;;;;;;5049775;28;19956;-78
2022/11/10 15:35:53;;;;;;;;;;;;;;;;;;5049021;28;20287;-78
2022/11/10 15:38:25;;;;;;;;;;;;;;;;;;5036179;28;19933;-76
2022/11/10 15:40:57;;;;;;;;;;;;;;;;;;5034059;28;20001;-79
2022/11/10 15:43:27;;;;;;;;;;;;;;;;;;5025174;28;19925;-78
2022/11/10 15:45:57;;;;;;;;;;;;;;;;;;5042661;28;19932;-78
2022/11/10 15:48:25;;;;;;;;;;;;;;;;;;5034540;28;19936;-78
2022/11/10 15:50:54;;;;;;;;;;;;;;;;;;5048455;28;19968;-78
2022/11/10 15:53:27;;;;;;;;;;;;;;;;;;5039142;28;19960;-78
2022/11/10 15:55:53;;;;;;;;;;;;;;;;;;5044423;28;19926;-79
2022/11/10 15:58:21;;;;;;;;;;;;;;;;;;5038372;28;19925;-78
2022/11/10 16:00:48;;;;;;;;;;;;;;;;;;5041705;28;19929;-77
2022/11/10 16:03:18;;;;;;;;;;;;;;;;;;5033932;28;19925;-83
2022/11/10 16:05:45;;;;;;;;;;;;;;;;;;5029902;28;19944;-89
2022/11/10 16:08:13;;;;;;;;;;;;;;;;;;5036993;28;20016;-82
2022/11/10 16:10:40;;;;;;;;;;;;;;;;;;5034226;28;19964;-78
2022/11/10 16:13:21;;;;;;;;;;;;;;;;;;5037180;28;19979;-78
2022/11/10 16:15:48;;;;;;;;;;;;;;;;;;5040607;28;19933;-78
2022/11/10 16:18:18;;;;;;;;;;;;;;;;;;5035284;28;19956;-78
2022/11/10 16:20:46;;;;;;;;;;;;;;;;;;5038603;28;19925;-78
2022/11/10 16:23:14;;;;;;;;;;;;;;;;;;5041154;28;19932;-79
2022/11/10 16:25:41;;;;;;;;;;;;;;;;;;5041257;28;20004;-78
2022/11/10 16:28:09;;;;;;;;;;;;;;;;;;5034738;28;19960;-78
2022/11/10 16:30:36;;;;;;;;;;;;;;;;;;5034859;28;19925;-79
2022/11/10 16:33:03;;;;;;;;;;;;;;;;;;5034901;28;19945;-78
2022/11/10 16:35:29;;;;;;;;;;;;;;;;;;5034545;28;20299;-80
2022/11/10 16:37:56;;;;;;;;;;;;;;;;;;5039783;28;19975;-79
2022/11/10 16:40:24;;;;;;;;;;;;;;;;;;5040724;28;19972;-79
2022/11/10 16:42:51;;;;;;;;;;;;;;;;;;5038220;28;19925;-80
2022/11/10 16:45:18;;;;;;;;;;;;;;;;;;5042752;28;19935;-80
2022/11/10 16:47:46;;;;;;;;;;;;;;;;;;5043003;28;19975;-80
2022/11/10 16:50:30;;;;;;;;;;;;;;;;;;5040267;28;19964;-80
2022/11/10 16:52:57;;;;;;;;;;;;;;;;;;5035039;28;19979;-78
2022/11/10 16:55:25;;;;;;;;;;;;;;;;;;5038202;28;19925;-79
2022/11/10 16:57:51;;;;;;;;;;;;;;;;;;5043578;28;19933;-80
2022/11/10 17:00:18;;;;;;;;;;;;;;;;;;5051085;28;19990;-79
2022/11/10 17:02:46;;;;;;;;;;;;;;;;;;5038388;28;19937;-80
2022/11/10 17:05:14;;;;;;;;;;;;;;;;;;5052022;28;19944;-79
2022/11/10 17:07:41;;;;;;;;;;;;;;;;;;5052987;28;19929;-79
2022/11/10 17:10:13;;;;;;;;;;;;;;;;;;5052231;28;20375;-80
2022/11/10 17:12:41;;;;;;;;;;;;;;;;;;5050654;28;19929;-79
2022/11/10 17:15:09;;;;;;;;;;;;;;;;;;5050047;28;19987;-79